Elizabeth — WSN6409 — position and weather

sailwx.info

Track history (hours):
 
Tides and Currents Weather Stations Pressure Air Temp Water Temp Dewpoint Dewpoint Depression Visibility Wind Speed Wind Dir Waves Ship Positions

Elizabeth

Owner: WEEKS MARINE, INC., CRANFORD, NJ. More information available from US FCC via Universal Licensing System and Coast Guard Vessel Documentation Center.

Last reported at 2017-Dec-11 16:58 UTC. Time now 2017-Dec-12 04:47 UTC.
Position N 40°28' W 073°57'.

Length 24 m; draft 3.3 m.

Type: . MMSI: 366939170.

Date/timePositionNaut miles runAvg speedWind from/ knotsBaromVisibWave heightAir tempDewpointWater temp
2017-Dec-11 16:58N 40°28' W 073°57'4 7.0
2017-Dec-11 16:21N 40°24' W 073°57'2 4.9
2017-Dec-11 16:00N 40°26' W 073°57'2 4.6
2017-Dec-11 15:30N 40°28' W 073°57'2 4.1
2017-Dec-11 15:00N 40°29' W 073°59'1 2.6
2017-Dec-11 14:30N 40°29' W 074°00'0 0.8
2017-Dec-11 14:00N 40°29' W 074°01'1 1.6
2017-Dec-11 13:30N 40°28' W 074°02'2 4.1
2017-Dec-11 13:00N 40°29' W 073°59'2 3.5
2017-Dec-11 12:30N 40°29' W 073°57'4 5.6
2017-Dec-11 11:46N 40°25' W 073°57'2 2.6
2017-Dec-11 10:53N 40°27' W 073°57'2 5.0
2017-Dec-11 10:30N 40°29' W 073°58'2 4.2
2017-Dec-11 10:00N 40°29' W 074°00'0 0.7
2017-Dec-11 09:31N 40°29' W 074°00'1 2.6
2017-Dec-11 09:00N 40°28' W 074°02'0 0.5
2017-Dec-11 08:31N 40°28' W 074°02'3 5.1
2017-Dec-11 08:00N 40°29' W 073°58'3 5.2
2017-Dec-11 07:28N 40°27' W 073°57'3 4.6
2017-Dec-11 06:53N 40°24' W 073°57'2 3.9
2017-Dec-11 06:29N 40°25' W 073°57'2 4.6
2017-Dec-11 05:59N 40°28' W 073°57'2 4.0
2017-Dec-11 05:30N 40°29' W 073°58'2 3.2
2017-Dec-11 05:00N 40°29' W 074°01'0 0.6
2017-Dec-11 04:30N 40°29' W 074°00'1 1.8
2017-Dec-11 04:00N 40°29' W 074°01'4 5.5
2017-Dec-11 03:20N 40°29' W 074°06'1 1.0
2017-Dec-11 01:56N 40°28' W 074°05'1 3.1
2017-Dec-11 01:30N 40°28' W 074°03'2 3.5
2017-Dec-11 00:59N 40°29' W 074°01'2 3.4
2017-Dec-11 00:30N 40°29' W 073°59'2 5.0
2017-Dec-11 00:00N 40°27' W 073°57'3 5.8
2017-Dec-10 23:26N 40°24' W 073°57'2 5.1
2017-Dec-10 22:57N 40°26' W 073°57'3 5.6
2017-Dec-10 22:29N 40°29' W 073°58'2 3.7
2017-Dec-10 22:00N 40°29' W 074°00'2 3.7
2017-Dec-10 21:29N 40°28' W 074°03'3 4.1
2017-Dec-10 20:51N 40°29' W 074°06'1 1.4
2017-Dec-10 20:28N 40°29' W 074°05'1 2.0
2017-Dec-10 19:46N 40°28' W 074°04'0 1.9
2017-Dec-10 19:30N 40°28' W 074°03'1 2.6
2017-Dec-10 19:00N 40°29' W 074°01'2 3.5
2017-Dec-10 18:30N 40°29' W 073°59'3 4.8
2017-Dec-10 17:58N 40°27' W 073°57'3 6.1
2017-Dec-10 17:28N 40°24' W 073°57'1 0.8
2017-Dec-10 16:48N 40°25' W 073°57'1 2.3
2017-Dec-10 16:14N 40°26' W 073°56'1 5.4
2017-Dec-10 16:00N 40°25' W 073°56'1 2.6
2017-Dec-10 15:30N 40°24' W 073°57'3 5.5
2017-Dec-10 14:55N 40°27' W 073°57'2 5.3
2017-Dec-10 14:30N 40°29' W 073°58'2 3.1
2017-Dec-10 14:00N 40°29' W 074°00'0 0.6
2017-Dec-10 13:30N 40°29' W 074°01'2 3.0
2017-Dec-10 12:59N 40°28' W 074°02'1 1.1
2017-Dec-10 12:30N 40°28' W 074°02'5 3.9
2017-Dec-10 11:18N 40°29' W 074°07'1 2.0
2017-Dec-10 10:56N 40°29' W 074°07'1 1.8
2017-Dec-10 10:10N 40°29' W 074°05'0 2.0
2017-Dec-10 10:00N 40°29' W 074°04'1 1.9
2017-Dec-10 09:30N 40°28' W 074°03'1 1.8
2017-Dec-10 09:00N 40°28' W 074°02'1 1.7
2017-Dec-10 08:29N 40°28' W 074°03'2 0.7
2017-Dec-10 06:03N 40°29' W 074°05'0 3.0
2017-Dec-10 05:58N 40°29' W 074°05'1 3.0
2017-Dec-10 05:30N 40°28' W 074°03'1 2.6
2017-Dec-10 05:00N 40°28' W 074°01'6 2.9
2017-Dec-10 03:04N 40°30' W 074°08'0 3.2
2017-Dec-10 02:55N 40°29' W 074°08'2 3.3
2017-Dec-10 02:19N 40°29' W 074°05'1 3.3
2017-Dec-10 01:58N 40°28' W 074°04'1 3.0
2017-Dec-10 01:30N 40°28' W 074°02'2 4.5
2017-Dec-10 01:00N 40°29' W 073°59'2 3.9
2017-Dec-10 00:30N 40°28' W 073°57'3 5.4
2017-Dec-09 23:58N 40°25' W 073°57'1 2.8
2017-Dec-09 23:29N 40°24' W 073°57'3 5.3
2017-Dec-09 22:59N 40°27' W 073°57'2 5.1
2017-Dec-09 22:30N 40°29' W 073°58'2 3.6
2017-Dec-09 22:00N 40°30' W 074°01'1 1.1
2017-Dec-09 21:30N 40°29' W 074°00'1 1.4
2017-Dec-09 21:00N 40°29' W 073°59'2 3.5
2017-Dec-09 20:30N 40°28' W 073°57'4 6.9
2017-Dec-09 19:55N 40°25' W 073°57'3 3.4
2017-Dec-09 19:06N 40°27' W 073°57'2 5.9
2017-Dec-09 18:49N 40°29' W 073°58'2 5.5
2017-Dec-09 18:30N 40°29' W 074°00'0 0.5
2017-Dec-09 18:00N 40°29' W 074°00'1 2.7
2017-Dec-09 17:30N 40°29' W 073°59'5 5.0
2017-Dec-09 16:26N 40°24' W 073°57'3 5.2
2017-Dec-09 15:57N 40°26' W 073°57'2 4.5
2017-Dec-09 15:29N 40°28' W 073°58'2 3.8
2017-Dec-09 15:00N 40°29' W 073°60'1 1.5
2017-Dec-09 14:30N 40°29' W 074°00'1 1.4
2017-Dec-09 14:00N 40°30' W 074°00'2 4.0
2017-Dec-09 13:30N 40°29' W 073°58'1 1.9
2017-Dec-09 12:59N 40°29' W 073°57'2 5.0
2017-Dec-09 12:30N 40°26' W 073°57'2 4.7
2017-Dec-09 11:58N 40°24' W 073°57'3 4.4
2017-Dec-09 11:11N 40°27' W 073°57'1 5.2
2017-Dec-09 10:59N 40°28' W 073°57'3 5.1
2017-Dec-09 10:30N 40°29' W 074°00'1 1.0
2017-Dec-09 10:00N 40°29' W 074°00'0 0.1
2017-Dec-09 09:30N 40°29' W 074°00'0 0.2
2017-Dec-09 09:00N 40°29' W 074°00'1 1.3
2017-Dec-09 08:30N 40°29' W 073°59'2 4.2
2017-Dec-09 08:00N 40°29' W 073°57'2 2.9
2017-Dec-09 07:28N 40°28' W 073°56'2 4.6
2017-Dec-09 07:00N 40°30' W 073°57'2 4.0
2017-Dec-09 06:30N 40°28' W 073°56'3 5.7
2017-Dec-09 06:00N 40°25' W 073°56'2 2.9
2017-Dec-09 05:27N 40°24' W 073°57'3 4.8
2017-Dec-09 04:54N 40°27' W 073°57'2 4.1
2017-Dec-09 04:28N 40°28' W 073°57'2 3.9
2017-Dec-09 03:59N 40°29' W 073°59'1 1.9
2017-Dec-09 03:31N 40°29' W 074°01'0 0.3
2017-Dec-09 03:00N 40°29' W 074°00'0 0.3
2017-Dec-09 02:30N 40°29' W 074°00'1 1.6
2017-Dec-09 01:59N 40°29' W 074°01'1 2.7
2017-Dec-09 01:27N 40°28' W 074°03'1 2.1
2017-Dec-09 01:00N 40°28' W 074°02'2 3.9
2017-Dec-09 00:30N 40°30' W 073°60'2 3.3
2017-Dec-08 23:59N 40°29' W 073°58'5 6.1
2017-Dec-08 23:10N 40°24' W 073°57'1 3.4
2017-Dec-08 22:58N 40°24' W 073°58'3 4.2
2017-Dec-08 22:18N 40°27' W 073°57'2 5.0
2017-Dec-08 22:00N 40°28' W 073°57'3 5.8
2017-Dec-08 21:30N 40°29' W 074°00'1 1.0
2017-Dec-08 21:00N 40°29' W 074°00'0 0.7
2017-Dec-08 20:30N 40°29' W 074°00'2 3.8
2017-Dec-08 20:00N 40°29' W 073°58'5 5.6
2017-Dec-08 19:07N 40°24' W 073°57'1 5.3
2017-Dec-08 18:56N 40°25' W 073°57'2 5.3
2017-Dec-08 18:29N 40°27' W 073°56'2 4.9
2017-Dec-08 18:00N 40°29' W 073°58'0 0.3
2017-Dec-08 17:29N 40°29' W 073°58'2 4.8
2017-Dec-08 17:00N 40°28' W 074°01'1 1.9
2017-Dec-08 16:30N 40°29' W 074°01'0 0.4
2017-Dec-08 16:00N 40°29' W 074°00'1 2.1
2017-Dec-08 15:30N 40°29' W 074°02'1 2.9
2017-Dec-08 15:00N 40°29' W 074°03'0 0.3
2017-Dec-08 14:30N 40°28' W 074°03'1 2.2
2017-Dec-08 13:59N 40°28' W 074°02'2 2.7
2017-Dec-08 13:10N 40°28' W 074°05'1 4.5
2017-Dec-08 12:59N 40°28' W 074°04'3 6.3
2017-Dec-08 12:30N 40°29' W 073°60'3 5.6
2017-Dec-08 11:57N 40°27' W 073°57'3 7.3
2017-Dec-08 11:30N 40°24' W 073°57'1 2.9
2017-Dec-08 11:00N 40°25' W 073°58'3 5.6
2017-Dec-08 10:27N 40°28' W 073°57'2 4.2
2017-Dec-08 10:00N 40°29' W 073°59'1 1.0
2017-Dec-08 09:30N 40°29' W 073°60'0 0.7
2017-Dec-08 09:00N 40°29' W 074°00'1 1.3
2017-Dec-08 08:30N 40°29' W 073°59'1 1.9
2017-Dec-08 08:00N 40°29' W 073°58'2 3.2
2017-Dec-08 07:30N 40°28' W 073°57'4 6.3
2017-Dec-08 06:52N 40°24' W 073°57'1 2.4
2017-Dec-08 06:30N 40°25' W 073°57'3 6.2
2017-Dec-08 05:58N 40°28' W 073°57'3 6.2
2017-Dec-08 05:30N 40°29' W 074°00'12 3.7
2017-Dec-08 02:16N 40°32' W 074°15'0 0.1
2017-Dec-08 01:57N 40°32' W 074°15'0 0.0
2017-Dec-08 01:28N 40°32' W 074°15'0 0.0
2017-Dec-08 00:51N 40°32' W 074°15'0 0.1
2017-Dec-08 00:30N 40°32' W 074°15'9 5.8
2017-Dec-07 23:00N 40°29' W 074°05'3 6.7
2017-Dec-07 22:29N 40°29' W 074°00'2 3.1
2017-Dec-07 22:00N 40°28' W 074°01'0 0.1
2017-Dec-07 21:29N 40°28' W 074°01'0 0.2
2017-Dec-07 21:00N 40°28' W 074°01'0 0.0
2017-Dec-07 16:16N 40°27' W 074°01'0 0.2
2017-Dec-07 15:59N 40°28' W 074°01'1 2.4
2017-Dec-07 15:30N 40°28' W 074°02'0 0.2
2017-Dec-07 14:59N 40°28' W 074°02'1 2.2
2017-Dec-07 14:30N 40°27' W 074°01'0 0.2
2017-Dec-07 13:49N 40°28' W 074°01'0 0.1
2017-Dec-07 13:27N 40°28' W 074°01'0 0.0
2017-Dec-07 13:00N 40°28' W 074°01'0 0.0
2017-Dec-07 12:30N 40°28' W 074°01'0 0.0
2017-Dec-07 11:49N 40°28' W 074°01'0 0.0
2017-Dec-07 11:29N 40°28' W 074°01'0 0.0
2017-Dec-07 10:58N 40°28' W 074°01'0 0.0
2017-Dec-07 10:23N 40°28' W 074°01'0 0.0
2017-Dec-07 10:00N 40°28' W 074°01'4 7.1
2017-Dec-07 09:29N 40°31' W 074°03'611.5
2017-Dec-07 09:00N 40°36' W 074°03'4 8.9
2017-Dec-07 08:30N 40°41' W 074°05'0 0.1
2017-Dec-07 08:00N 40°41' W 074°05'0 0.0
2017-Dec-07 07:30N 40°41' W 074°05'0 0.0
2017-Dec-07 07:00N 40°41' W 074°05'0 0.0
2017-Dec-07 06:30N 40°41' W 074°05'0 0.0
2017-Dec-07 06:01N 40°41' W 074°05'0 0.0
2017-Dec-07 05:30N 40°41' W 074°05'0 0.0
2017-Dec-07 05:00N 40°41' W 074°05'0 0.0
2017-Dec-07 04:30N 40°41' W 074°05'0 0.0
2017-Dec-07 04:00N 40°41' W 074°05'0 0.0
2017-Dec-07 03:30N 40°41' W 074°05'0 0.1
2017-Dec-07 03:01N 40°41' W 074°05'0 0.4
2017-Dec-07 02:31N 40°40' W 074°04'0 0.0
2017-Dec-07 02:01N 40°40' W 074°04'0 0.1
2017-Dec-07 01:30N 40°40' W 074°04'0 0.0
2017-Dec-07 01:01N 40°40' W 074°04'0 0.0
2017-Dec-07 00:30N 40°40' W 074°04'0 0.0
2017-Dec-07 00:00N 40°40' W 074°04'2 4.4
2017-Dec-06 23:30N 40°39' W 074°07'0 0.0
2017-Dec-06 23:00N 40°39' W 074°07'0 0.0
2017-Dec-06 22:30N 40°39' W 074°07'0 0.0
2017-Dec-06 21:59N 40°39' W 074°07'0 0.0
2017-Dec-06 21:30N 40°39' W 074°07'1 2.1
2017-Dec-06 21:00N 40°39' W 074°05'  
2017-Dec-04 10:30N 40°28' W 074°02'2 3.0
2017-Dec-04 10:00N 40°29' W 074°00'0 0.1
2017-Dec-04 09:30N 40°29' W 074°00'0 0.0
2017-Dec-04 09:00N 40°29' W 074°00'0 0.0
2017-Dec-04 08:30N 40°29' W 074°00'0 0.0
2017-Dec-04 08:00N 40°29' W 074°00'0 0.0
2017-Dec-04 07:30N 40°29' W 074°00'0 0.0
2017-Dec-04 06:59N 40°29' W 074°00'0 0.0
2017-Dec-04 06:30N 40°29' W 074°00'0 0.0
2017-Dec-04 06:00N 40°29' W 074°00'0 0.0
2017-Dec-04 05:30N 40°29' W 074°00'0 0.0
2017-Dec-04 05:00N 40°29' W 074°00'1 1.6
2017-Dec-04 04:29N 40°29' W 074°01'1 2.0
2017-Dec-04 04:00N 40°28' W 074°03'1 2.2
2017-Dec-04 03:30N 40°29' W 074°01'1 1.3
2017-Dec-04 03:00N 40°29' W 074°00'0 0.0
2017-Dec-04 02:30N 40°29' W 074°00'0 0.0
2017-Dec-04 01:59N 40°29' W 074°00'0 0.0
2017-Dec-04 01:30N 40°29' W 074°00'0 0.0
2017-Dec-04 01:00N 40°29' W 074°00'0 0.0
2017-Dec-04 00:30N 40°29' W 074°00'0 0.0
2017-Dec-03 23:57N 40°29' W 074°00'0 0.0
2017-Dec-03 23:20N 40°29' W 074°00'0 0.0
2017-Dec-03 22:59N 40°29' W 074°00'2 3.8
2017-Dec-03 22:30N 40°28' W 074°02'1 2.7
2017-Dec-03 21:59N 40°29' W 074°01'0 1.0
2017-Dec-03 21:30N 40°29' W 074°00'0 0.2
2017-Dec-03 20:59N 40°29' W 074°00'0 0.0
2017-Dec-03 20:30N 40°29' W 074°00'0 0.0
2017-Dec-03 20:00N 40°29' W 074°00'0 0.0
2017-Dec-03 19:30N 40°29' W 074°00'0 0.1
2017-Dec-03 18:59N 40°29' W 074°00'0 0.0
2017-Dec-03 18:30N 40°29' W 074°00'2 3.3
2017-Dec-03 18:00N 40°28' W 074°02'1 2.0
2017-Dec-03 17:30N 40°29' W 074°01'1 1.5
2017-Dec-03 16:58N 40°29' W 074°00'0 0.6
2017-Dec-03 16:29N 40°29' W 074°00'0 0.0
2017-Dec-03 15:59N 40°29' W 074°00'0 0.0
2017-Dec-03 15:30N 40°29' W 074°00'0 0.0
2017-Dec-03 15:00N 40°29' W 074°00'0 0.0
2017-Dec-03 14:30N 40°29' W 074°00'0 0.0
2017-Dec-03 14:00N 40°29' W 074°00'0 0.9
2017-Dec-03 13:30N 40°29' W 074°00'0 0.6
2017-Dec-03 13:00N 40°29' W 074°00'0 0.3
2017-Dec-03 12:30N 40°29' W 074°00'0 0.0
2017-Dec-03 12:00N 40°29' W 074°00'0 0.0
2017-Dec-03 11:30N 40°29' W 074°00'0 0.0
2017-Dec-03 11:00N 40°29' W 074°00'0 0.0
2017-Dec-03 10:30N 40°29' W 074°00'0 0.0
2017-Dec-03 10:00N 40°29' W 074°00'0 0.0
2017-Dec-03 09:30N 40°29' W 074°00'0 0.0
2017-Dec-03 09:00N 40°29' W 074°00'0 0.0
2017-Dec-03 08:30N 40°29' W 074°00'0 0.0
2017-Dec-03 08:00N 40°29' W 074°00'0 0.1
2017-Dec-03 07:30N 40°29' W 074°00'0 0.0
2017-Dec-03 07:00N 40°29' W 074°00'0 0.0
2017-Dec-03 06:30N 40°29' W 074°00'0 0.0
2017-Dec-03 06:00N 40°29' W 074°00'0 0.0
2017-Dec-03 05:30N 40°29' W 074°00'0 0.0
2017-Dec-03 05:00N 40°29' W 074°00'0 0.0
2017-Dec-03 04:30N 40°29' W 074°00'0 0.0
2017-Dec-03 04:00N 40°29' W 074°00'0 0.0
2017-Dec-03 03:30N 40°29' W 074°00'0 0.0
2017-Dec-03 03:00N 40°29' W 074°00'0 0.0
2017-Dec-03 02:30N 40°29' W 074°00'0 0.7
2017-Dec-03 02:00N 40°29' W 073°60'0 0.6
2017-Dec-03 01:29N 40°29' W 074°00'1 1.1
2017-Dec-03 01:00N 40°29' W 074°00'0 0.0
2017-Dec-03 00:30N 40°29' W 074°00'0 0.1
2017-Dec-03 00:00N 40°29' W 074°00'0 0.0
2017-Dec-02 23:30N 40°29' W 074°00'0 0.1
2017-Dec-02 23:00N 40°29' W 074°00'0 0.0
2017-Dec-02 22:29N 40°29' W 074°00'0 0.0
2017-Dec-02 22:00N 40°29' W 074°00'0 0.0
2017-Dec-02 21:29N 40°29' W 074°00'1 2.3
2017-Dec-02 21:00N 40°28' W 074°01'1 2.9
2017-Dec-02 20:30N 40°29' W 074°00'0 0.8
2017-Dec-02 20:00N 40°29' W 074°00'0 0.0
2017-Dec-02 19:29N 40°29' W 074°00'0 0.0
2017-Dec-02 19:00N 40°29' W 074°00'0 0.0
2017-Dec-02 18:31N 40°29' W 074°00'0 0.0
2017-Dec-02 18:00N 40°29' W 074°00'0 0.0
2017-Dec-02 17:30N 40°29' W 074°00'1 1.2
2017-Dec-02 17:00N 40°30' W 074°00'0 0.1
2017-Dec-02 16:30N 40°29' W 074°00'1 1.0
2017-Dec-02 16:00N 40°29' W 074°00'0 0.0
2017-Dec-02 15:30N 40°29' W 074°00'0 0.0
2017-Dec-02 14:59N 40°29' W 074°00'0 0.0
2017-Dec-02 14:30N 40°29' W 074°00'0 0.0
2017-Dec-02 14:00N 40°29' W 074°00'0 0.0
2017-Dec-02 13:30N 40°29' W 074°00'0 0.0
2017-Dec-02 13:00N 40°29' W 074°00'0 0.0
2017-Dec-02 12:30N 40°29' W 074°00'0 0.0
2017-Dec-02 11:59N 40°29' W 074°00'0 0.0
2017-Dec-02 11:29N 40°29' W 074°00'0 0.0
2017-Dec-02 10:58N 40°29' W 074°00'0 0.0
2017-Dec-02 10:30N 40°29' W 074°00'0 0.0
2017-Dec-02 10:00N 40°29' W 074°00'0 0.0
2017-Dec-02 09:30N 40°29' W 074°00'0 0.1
2017-Dec-02 09:00N 40°29' W 074°00'0 0.1
2017-Dec-02 08:30N 40°29' W 074°00'2 2.9
2017-Dec-02 07:59N 40°28' W 074°01'1 1.2
2017-Dec-02 07:30N 40°28' W 074°01'1 2.4
2017-Dec-02 07:00N 40°29' W 074°00'0 0.1
2017-Dec-02 06:29N 40°29' W 074°00'0 0.0
2017-Dec-02 06:00N 40°29' W 074°00'0 0.0
2017-Dec-02 05:30N 40°29' W 074°00'0 0.0
2017-Dec-02 05:00N 40°29' W 074°00'0 0.0
2017-Dec-02 04:30N 40°29' W 074°00'0 0.0
2017-Dec-02 04:00N 40°29' W 074°00'0 0.0
2017-Dec-02 03:30N 40°29' W 074°00'0 0.0
2017-Dec-02 03:00N 40°29' W 074°00'0 0.0
2017-Dec-02 02:30N 40°29' W 074°00'0 0.0
2017-Dec-02 02:00N 40°29' W 074°00'0 0.0
2017-Dec-02 01:30N 40°29' W 074°00'0 0.0
2017-Dec-02 01:00N 40°29' W 074°00'1 1.1
2017-Dec-01 23:50N 40°28' W 074°01'2 6.3
2017-Dec-01 23:30N 40°29' W 074°03'4 8.2
2017-Dec-01 23:00N 40°33' W 074°02'4 7.6
2017-Dec-01 22:30N 40°37' W 074°03'3 6.8
2017-Dec-01 22:00N 40°40' W 074°04'0 0.9
2017-Dec-01 21:30N 40°41' W 074°05'0 0.6
2017-Dec-01 21:01N 40°40' W 074°04'4 7.3
2017-Dec-01 20:30N 40°39' W 074°08'4 7.2
2017-Dec-01 20:00N 40°36' W 074°12'5 9.0
2017-Dec-01 19:29N 40°32' W 074°15'0 0.1
2017-Dec-01 18:59N 40°32' W 074°15'0 0.0
2017-Dec-01 18:26N 40°32' W 074°15'0 0.0
2017-Dec-01 17:51N 40°32' W 074°15'0 0.0
2017-Dec-01 17:20N 40°32' W 074°15'0 0.1
2017-Dec-01 17:00N 40°32' W 074°15'  
Track history (hours):
 
Tides and Currents Weather Stations Pressure Air Temp Water Temp Dewpoint Dewpoint Depression Visibility Wind Speed Wind Dir Waves Ship Positions

Elizabeth

Owner: WEEKS MARINE, INC., CRANFORD, NJ. More information available from US FCC via Universal Licensing System and Coast Guard Vessel Documentation Center.

Last reported at 2017-Dec-11 16:58 UTC. Time now 2017-Dec-12 04:47 UTC.
Position N 40°28' W 073°57'.

Length 24 m; draft 3.3 m.

Type: . MMSI: 366939170.

Date/timePositionNaut miles runAvg speedWind from/ knotsBaromVisibWave heightAir tempDewpointWater temp
2017-Dec-11 16:58N 40°28' W 073°57'4 7.0
2017-Dec-11 16:21N 40°24' W 073°57'2 4.9
2017-Dec-11 16:00N 40°26' W 073°57'2 4.6
2017-Dec-11 15:30N 40°28' W 073°57'2 4.1
2017-Dec-11 15:00N 40°29' W 073°59'1 2.6
2017-Dec-11 14:30N 40°29' W 074°00'0 0.8
2017-Dec-11 14:00N 40°29' W 074°01'1 1.6
2017-Dec-11 13:30N 40°28' W 074°02'2 4.1
2017-Dec-11 13:00N 40°29' W 073°59'2 3.5
2017-Dec-11 12:30N 40°29' W 073°57'4 5.6
2017-Dec-11 11:46N 40°25' W 073°57'2 2.6
2017-Dec-11 10:53N 40°27' W 073°57'2 5.0
2017-Dec-11 10:30N 40°29' W 073°58'2 4.2
2017-Dec-11 10:00N 40°29' W 074°00'0 0.7
2017-Dec-11 09:31N 40°29' W 074°00'1 2.6
2017-Dec-11 09:00N 40°28' W 074°02'0 0.5
2017-Dec-11 08:31N 40°28' W 074°02'3 5.1
2017-Dec-11 08:00N 40°29' W 073°58'3 5.2
2017-Dec-11 07:28N 40°27' W 073°57'3 4.6
2017-Dec-11 06:53N 40°24' W 073°57'2 3.9
2017-Dec-11 06:29N 40°25' W 073°57'2 4.6
2017-Dec-11 05:59N 40°28' W 073°57'2 4.0
2017-Dec-11 05:30N 40°29' W 073°58'2 3.2
2017-Dec-11 05:00N 40°29' W 074°01'0 0.6
2017-Dec-11 04:30N 40°29' W 074°00'1 1.8
2017-Dec-11 04:00N 40°29' W 074°01'4 5.5
2017-Dec-11 03:20N 40°29' W 074°06'1 1.0
2017-Dec-11 01:56N 40°28' W 074°05'1 3.1
2017-Dec-11 01:30N 40°28' W 074°03'2 3.5
2017-Dec-11 00:59N 40°29' W 074°01'2 3.4
2017-Dec-11 00:30N 40°29' W 073°59'2 5.0
2017-Dec-11 00:00N 40°27' W 073°57'3 5.8
2017-Dec-10 23:26N 40°24' W 073°57'2 5.1
2017-Dec-10 22:57N 40°26' W 073°57'3 5.6
2017-Dec-10 22:29N 40°29' W 073°58'2 3.7
2017-Dec-10 22:00N 40°29' W 074°00'2 3.7
2017-Dec-10 21:29N 40°28' W 074°03'3 4.1
2017-Dec-10 20:51N 40°29' W 074°06'1 1.4
2017-Dec-10 20:28N 40°29' W 074°05'1 2.0
2017-Dec-10 19:46N 40°28' W 074°04'0 1.9
2017-Dec-10 19:30N 40°28' W 074°03'1 2.6
2017-Dec-10 19:00N 40°29' W 074°01'2 3.5
2017-Dec-10 18:30N 40°29' W 073°59'3 4.8
2017-Dec-10 17:58N 40°27' W 073°57'3 6.1
2017-Dec-10 17:28N 40°24' W 073°57'1 0.8
2017-Dec-10 16:48N 40°25' W 073°57'1 2.3
2017-Dec-10 16:14N 40°26' W 073°56'1 5.4
2017-Dec-10 16:00N 40°25' W 073°56'1 2.6
2017-Dec-10 15:30N 40°24' W 073°57'3 5.5
2017-Dec-10 14:55N 40°27' W 073°57'2 5.3
2017-Dec-10 14:30N 40°29' W 073°58'2 3.1
2017-Dec-10 14:00N 40°29' W 074°00'0 0.6
2017-Dec-10 13:30N 40°29' W 074°01'2 3.0
2017-Dec-10 12:59N 40°28' W 074°02'1 1.1
2017-Dec-10 12:30N 40°28' W 074°02'5 3.9
2017-Dec-10 11:18N 40°29' W 074°07'1 2.0
2017-Dec-10 10:56N 40°29' W 074°07'1 1.8
2017-Dec-10 10:10N 40°29' W 074°05'0 2.0
2017-Dec-10 10:00N 40°29' W 074°04'1 1.9
2017-Dec-10 09:30N 40°28' W 074°03'1 1.8
2017-Dec-10 09:00N 40°28' W 074°02'1 1.7
2017-Dec-10 08:29N 40°28' W 074°03'2 0.7
2017-Dec-10 06:03N 40°29' W 074°05'0 3.0
2017-Dec-10 05:58N 40°29' W 074°05'1 3.0
2017-Dec-10 05:30N 40°28' W 074°03'1 2.6
2017-Dec-10 05:00N 40°28' W 074°01'6 2.9
2017-Dec-10 03:04N 40°30' W 074°08'0 3.2
2017-Dec-10 02:55N 40°29' W 074°08'2 3.3
2017-Dec-10 02:19N 40°29' W 074°05'1 3.3
2017-Dec-10 01:58N 40°28' W 074°04'1 3.0
2017-Dec-10 01:30N 40°28' W 074°02'2 4.5
2017-Dec-10 01:00N 40°29' W 073°59'2 3.9
2017-Dec-10 00:30N 40°28' W 073°57'3 5.4
2017-Dec-09 23:58N 40°25' W 073°57'1 2.8
2017-Dec-09 23:29N 40°24' W 073°57'3 5.3
2017-Dec-09 22:59N 40°27' W 073°57'2 5.1
2017-Dec-09 22:30N 40°29' W 073°58'2 3.6
2017-Dec-09 22:00N 40°30' W 074°01'1 1.1
2017-Dec-09 21:30N 40°29' W 074°00'1 1.4
2017-Dec-09 21:00N 40°29' W 073°59'2 3.5
2017-Dec-09 20:30N 40°28' W 073°57'4 6.9
2017-Dec-09 19:55N 40°25' W 073°57'3 3.4
2017-Dec-09 19:06N 40°27' W 073°57'2 5.9
2017-Dec-09 18:49N 40°29' W 073°58'2 5.5
2017-Dec-09 18:30N 40°29' W 074°00'0 0.5
2017-Dec-09 18:00N 40°29' W 074°00'1 2.7
2017-Dec-09 17:30N 40°29' W 073°59'5 5.0
2017-Dec-09 16:26N 40°24' W 073°57'3 5.2
2017-Dec-09 15:57N 40°26' W 073°57'2 4.5
2017-Dec-09 15:29N 40°28' W 073°58'2 3.8
2017-Dec-09 15:00N 40°29' W 073°60'1 1.5
2017-Dec-09 14:30N 40°29' W 074°00'1 1.4
2017-Dec-09 14:00N 40°30' W 074°00'2 4.0
2017-Dec-09 13:30N 40°29' W 073°58'1 1.9
2017-Dec-09 12:59N 40°29' W 073°57'2 5.0
2017-Dec-09 12:30N 40°26' W 073°57'2 4.7
2017-Dec-09 11:58N 40°24' W 073°57'3 4.4
2017-Dec-09 11:11N 40°27' W 073°57'1 5.2
2017-Dec-09 10:59N 40°28' W 073°57'3 5.1
2017-Dec-09 10:30N 40°29' W 074°00'1 1.0
2017-Dec-09 10:00N 40°29' W 074°00'0 0.1
2017-Dec-09 09:30N 40°29' W 074°00'0 0.2
2017-Dec-09 09:00N 40°29' W 074°00'1 1.3
2017-Dec-09 08:30N 40°29' W 073°59'2 4.2
2017-Dec-09 08:00N 40°29' W 073°57'2 2.9
2017-Dec-09 07:28N 40°28' W 073°56'2 4.6
2017-Dec-09 07:00N 40°30' W 073°57'2 4.0
2017-Dec-09 06:30N 40°28' W 073°56'3 5.7
2017-Dec-09 06:00N 40°25' W 073°56'2 2.9
2017-Dec-09 05:27N 40°24' W 073°57'3 4.8
2017-Dec-09 04:54N 40°27' W 073°57'2 4.1
2017-Dec-09 04:28N 40°28' W 073°57'2 3.9
2017-Dec-09 03:59N 40°29' W 073°59'1 1.9
2017-Dec-09 03:31N 40°29' W 074°01'0 0.3
2017-Dec-09 03:00N 40°29' W 074°00'0 0.3
2017-Dec-09 02:30N 40°29' W 074°00'1 1.6
2017-Dec-09 01:59N 40°29' W 074°01'1 2.7
2017-Dec-09 01:27N 40°28' W 074°03'1 2.1
2017-Dec-09 01:00N 40°28' W 074°02'2 3.9
2017-Dec-09 00:30N 40°30' W 073°60'2 3.3
2017-Dec-08 23:59N 40°29' W 073°58'5 6.1
2017-Dec-08 23:10N 40°24' W 073°57'1 3.4
2017-Dec-08 22:58N 40°24' W 073°58'3 4.2
2017-Dec-08 22:18N 40°27' W 073°57'2 5.0
2017-Dec-08 22:00N 40°28' W 073°57'3 5.8
2017-Dec-08 21:30N 40°29' W 074°00'1 1.0
2017-Dec-08 21:00N 40°29' W 074°00'0 0.7
2017-Dec-08 20:30N 40°29' W 074°00'2 3.8
2017-Dec-08 20:00N 40°29' W 073°58'5 5.6
2017-Dec-08 19:07N 40°24' W 073°57'1 5.3
2017-Dec-08 18:56N 40°25' W 073°57'2 5.3
2017-Dec-08 18:29N 40°27' W 073°56'2 4.9
2017-Dec-08 18:00N 40°29' W 073°58'0 0.3
2017-Dec-08 17:29N 40°29' W 073°58'2 4.8
2017-Dec-08 17:00N 40°28' W 074°01'1 1.9
2017-Dec-08 16:30N 40°29' W 074°01'0 0.4
2017-Dec-08 16:00N 40°29' W 074°00'1 2.1
2017-Dec-08 15:30N 40°29' W 074°02'1 2.9
2017-Dec-08 15:00N 40°29' W 074°03'0 0.3
2017-Dec-08 14:30N 40°28' W 074°03'1 2.2
2017-Dec-08 13:59N 40°28' W 074°02'2 2.7
2017-Dec-08 13:10N 40°28' W 074°05'1 4.5
2017-Dec-08 12:59N 40°28' W 074°04'3 6.3
2017-Dec-08 12:30N 40°29' W 073°60'3 5.6
2017-Dec-08 11:57N 40°27' W 073°57'3 7.3
2017-Dec-08 11:30N 40°24' W 073°57'1 2.9
2017-Dec-08 11:00N 40°25' W 073°58'3 5.6
2017-Dec-08 10:27N 40°28' W 073°57'2 4.2
2017-Dec-08 10:00N 40°29' W 073°59'1 1.0
2017-Dec-08 09:30N 40°29' W 073°60'0 0.7
2017-Dec-08 09:00N 40°29' W 074°00'1 1.3
2017-Dec-08 08:30N 40°29' W 073°59'1 1.9
2017-Dec-08 08:00N 40°29' W 073°58'2 3.2
2017-Dec-08 07:30N 40°28' W 073°57'4 6.3
2017-Dec-08 06:52N 40°24' W 073°57'1 2.4
2017-Dec-08 06:30N 40°25' W 073°57'3 6.2
2017-Dec-08 05:58N 40°28' W 073°57'3 6.2
2017-Dec-08 05:30N 40°29' W 074°00'12 3.7
2017-Dec-08 02:16N 40°32' W 074°15'0 0.1
2017-Dec-08 01:57N 40°32' W 074°15'0 0.0
2017-Dec-08 01:28N 40°32' W 074°15'0 0.0
2017-Dec-08 00:51N 40°32' W 074°15'0 0.1
2017-Dec-08 00:30N 40°32' W 074°15'9 5.8
2017-Dec-07 23:00N 40°29' W 074°05'3 6.7
2017-Dec-07 22:29N 40°29' W 074°00'2 3.1
2017-Dec-07 22:00N 40°28' W 074°01'0 0.1
2017-Dec-07 21:29N 40°28' W 074°01'0 0.2
2017-Dec-07 21:00N 40°28' W 074°01'0 0.0
2017-Dec-07 16:16N 40°27' W 074°01'0 0.2
2017-Dec-07 15:59N 40°28' W 074°01'1 2.4
2017-Dec-07 15:30N 40°28' W 074°02'0 0.2
2017-Dec-07 14:59N 40°28' W 074°02'1 2.2
2017-Dec-07 14:30N 40°27' W 074°01'0 0.2
2017-Dec-07 13:49N 40°28' W 074°01'0 0.1
2017-Dec-07 13:27N 40°28' W 074°01'0 0.0
2017-Dec-07 13:00N 40°28' W 074°01'0 0.0
2017-Dec-07 12:30N 40°28' W 074°01'0 0.0
2017-Dec-07 11:49N 40°28' W 074°01'0 0.0
2017-Dec-07 11:29N 40°28' W 074°01'0 0.0
2017-Dec-07 10:58N 40°28' W 074°01'0 0.0
2017-Dec-07 10:23N 40°28' W 074°01'0 0.0
2017-Dec-07 10:00N 40°28' W 074°01'4 7.1
2017-Dec-07 09:29N 40°31' W 074°03'611.5
2017-Dec-07 09:00N 40°36' W 074°03'4 8.9
2017-Dec-07 08:30N 40°41' W 074°05'0 0.1
2017-Dec-07 08:00N 40°41' W 074°05'0 0.0
2017-Dec-07 07:30N 40°41' W 074°05'0 0.0
2017-Dec-07 07:00N 40°41' W 074°05'0 0.0
2017-Dec-07 06:30N 40°41' W 074°05'0 0.0
2017-Dec-07 06:01N 40°41' W 074°05'0 0.0
2017-Dec-07 05:30N 40°41' W 074°05'0 0.0
2017-Dec-07 05:00N 40°41' W 074°05'0 0.0
2017-Dec-07 04:30N 40°41' W 074°05'0 0.0
2017-Dec-07 04:00N 40°41' W 074°05'0 0.0
2017-Dec-07 03:30N 40°41' W 074°05'0 0.1
2017-Dec-07 03:01N 40°41' W 074°05'0 0.4
2017-Dec-07 02:31N 40°40' W 074°04'0 0.0
2017-Dec-07 02:01N 40°40' W 074°04'0 0.1
2017-Dec-07 01:30N 40°40' W 074°04'0 0.0
2017-Dec-07 01:01N 40°40' W 074°04'0 0.0
2017-Dec-07 00:30N 40°40' W 074°04'0 0.0
2017-Dec-07 00:00N 40°40' W 074°04'2 4.4
2017-Dec-06 23:30N 40°39' W 074°07'0 0.0
2017-Dec-06 23:00N 40°39' W 074°07'0 0.0
2017-Dec-06 22:30N 40°39' W 074°07'0 0.0
2017-Dec-06 21:59N 40°39' W 074°07'0 0.0
2017-Dec-06 21:30N 40°39' W 074°07'1 2.1
2017-Dec-06 21:00N 40°39' W 074°05'  
2017-Dec-04 10:30N 40°28' W 074°02'2 3.0
2017-Dec-04 10:00N 40°29' W 074°00'0 0.1
2017-Dec-04 09:30N 40°29' W 074°00'0 0.0
2017-Dec-04 09:00N 40°29' W 074°00'0 0.0
2017-Dec-04 08:30N 40°29' W 074°00'0 0.0
2017-Dec-04 08:00N 40°29' W 074°00'0 0.0
2017-Dec-04 07:30N 40°29' W 074°00'0 0.0
2017-Dec-04 06:59N 40°29' W 074°00'0 0.0
2017-Dec-04 06:30N 40°29' W 074°00'0 0.0
2017-Dec-04 06:00N 40°29' W 074°00'0 0.0
2017-Dec-04 05:30N 40°29' W 074°00'0 0.0
2017-Dec-04 05:00N 40°29' W 074°00'1 1.6
2017-Dec-04 04:29N 40°29' W 074°01'1 2.0
2017-Dec-04 04:00N 40°28' W 074°03'1 2.2
2017-Dec-04 03:30N 40°29' W 074°01'1 1.3
2017-Dec-04 03:00N 40°29' W 074°00'0 0.0
2017-Dec-04 02:30N 40°29' W 074°00'0 0.0
2017-Dec-04 01:59N 40°29' W 074°00'0 0.0
2017-Dec-04 01:30N 40°29' W 074°00'0 0.0
2017-Dec-04 01:00N 40°29' W 074°00'0 0.0
2017-Dec-04 00:30N 40°29' W 074°00'0 0.0
2017-Dec-03 23:57N 40°29' W 074°00'0 0.0
2017-Dec-03 23:20N 40°29' W 074°00'0 0.0
2017-Dec-03 22:59N 40°29' W 074°00'2 3.8
2017-Dec-03 22:30N 40°28' W 074°02'1 2.7
2017-Dec-03 21:59N 40°29' W 074°01'0 1.0
2017-Dec-03 21:30N 40°29' W 074°00'0 0.2
2017-Dec-03 20:59N 40°29' W 074°00'0 0.0
2017-Dec-03 20:30N 40°29' W 074°00'0 0.0
2017-Dec-03 20:00N 40°29' W 074°00'0 0.0
2017-Dec-03 19:30N 40°29' W 074°00'0 0.1
2017-Dec-03 18:59N 40°29' W 074°00'0 0.0
2017-Dec-03 18:30N 40°29' W 074°00'2 3.3
2017-Dec-03 18:00N 40°28' W 074°02'1 2.0
2017-Dec-03 17:30N 40°29' W 074°01'1 1.5
2017-Dec-03 16:58N 40°29' W 074°00'0 0.6
2017-Dec-03 16:29N 40°29' W 074°00'0 0.0
2017-Dec-03 15:59N 40°29' W 074°00'0 0.0
2017-Dec-03 15:30N 40°29' W 074°00'0 0.0
2017-Dec-03 15:00N 40°29' W 074°00'0 0.0
2017-Dec-03 14:30N 40°29' W 074°00'0 0.0
2017-Dec-03 14:00N 40°29' W 074°00'0 0.9
2017-Dec-03 13:30N 40°29' W 074°00'0 0.6
2017-Dec-03 13:00N 40°29' W 074°00'0 0.3
2017-Dec-03 12:30N 40°29' W 074°00'0 0.0
2017-Dec-03 12:00N 40°29' W 074°00'0 0.0
2017-Dec-03 11:30N 40°29' W 074°00'0 0.0
2017-Dec-03 11:00N 40°29' W 074°00'0 0.0
2017-Dec-03 10:30N 40°29' W 074°00'0 0.0
2017-Dec-03 10:00N 40°29' W 074°00'0 0.0
2017-Dec-03 09:30N 40°29' W 074°00'0 0.0
2017-Dec-03 09:00N 40°29' W 074°00'0 0.0
2017-Dec-03 08:30N 40°29' W 074°00'0 0.0
2017-Dec-03 08:00N 40°29' W 074°00'0 0.1
2017-Dec-03 07:30N 40°29' W 074°00'0 0.0
2017-Dec-03 07:00N 40°29' W 074°00'0 0.0
2017-Dec-03 06:30N 40°29' W 074°00'0 0.0
2017-Dec-03 06:00N 40°29' W 074°00'0 0.0
2017-Dec-03 05:30N 40°29' W 074°00'0 0.0
2017-Dec-03 05:00N 40°29' W 074°00'0 0.0
2017-Dec-03 04:30N 40°29' W 074°00'0 0.0
2017-Dec-03 04:00N 40°29' W 074°00'0 0.0
2017-Dec-03 03:30N 40°29' W 074°00'0 0.0
2017-Dec-03 03:00N 40°29' W 074°00'0 0.0
2017-Dec-03 02:30N 40°29' W 074°00'0 0.7
2017-Dec-03 02:00N 40°29' W 073°60'0 0.6
2017-Dec-03 01:29N 40°29' W 074°00'1 1.1
2017-Dec-03 01:00N 40°29' W 074°00'0 0.0
2017-Dec-03 00:30N 40°29' W 074°00'0 0.1
2017-Dec-03 00:00N 40°29' W 074°00'0 0.0
2017-Dec-02 23:30N 40°29' W 074°00'0 0.1
2017-Dec-02 23:00N 40°29' W 074°00'0 0.0
2017-Dec-02 22:29N 40°29' W 074°00'0 0.0
2017-Dec-02 22:00N 40°29' W 074°00'0 0.0
2017-Dec-02 21:29N 40°29' W 074°00'1 2.3
2017-Dec-02 21:00N 40°28' W 074°01'1 2.9
2017-Dec-02 20:30N 40°29' W 074°00'0 0.8
2017-Dec-02 20:00N 40°29' W 074°00'0 0.0
2017-Dec-02 19:29N 40°29' W 074°00'0 0.0
2017-Dec-02 19:00N 40°29' W 074°00'0 0.0
2017-Dec-02 18:31N 40°29' W 074°00'0 0.0
2017-Dec-02 18:00N 40°29' W 074°00'0 0.0
2017-Dec-02 17:30N 40°29' W 074°00'1 1.2
2017-Dec-02 17:00N 40°30' W 074°00'0 0.1
2017-Dec-02 16:30N 40°29' W 074°00'1 1.0
2017-Dec-02 16:00N 40°29' W 074°00'0 0.0
2017-Dec-02 15:30N 40°29' W 074°00'0 0.0
2017-Dec-02 14:59N 40°29' W 074°00'0 0.0
2017-Dec-02 14:30N 40°29' W 074°00'0 0.0
2017-Dec-02 14:00N 40°29' W 074°00'0 0.0
2017-Dec-02 13:30N 40°29' W 074°00'0 0.0
2017-Dec-02 13:00N 40°29' W 074°00'0 0.0
2017-Dec-02 12:30N 40°29' W 074°00'0 0.0
2017-Dec-02 11:59N 40°29' W 074°00'0 0.0
2017-Dec-02 11:29N 40°29' W 074°00'0 0.0
2017-Dec-02 10:58N 40°29' W 074°00'0 0.0
2017-Dec-02 10:30N 40°29' W 074°00'0 0.0
2017-Dec-02 10:00N 40°29' W 074°00'0 0.0
2017-Dec-02 09:30N 40°29' W 074°00'0 0.1
2017-Dec-02 09:00N 40°29' W 074°00'0 0.1
2017-Dec-02 08:30N 40°29' W 074°00'2 2.9
2017-Dec-02 07:59N 40°28' W 074°01'1 1.2
2017-Dec-02 07:30N 40°28' W 074°01'1 2.4
2017-Dec-02 07:00N 40°29' W 074°00'0 0.1
2017-Dec-02 06:29N 40°29' W 074°00'0 0.0
2017-Dec-02 06:00N 40°29' W 074°00'0 0.0
2017-Dec-02 05:30N 40°29' W 074°00'0 0.0
2017-Dec-02 05:00N 40°29' W 074°00'0 0.0
2017-Dec-02 04:30N 40°29' W 074°00'0 0.0
2017-Dec-02 04:00N 40°29' W 074°00'0 0.0
2017-Dec-02 03:30N 40°29' W 074°00'0 0.0
2017-Dec-02 03:00N 40°29' W 074°00'0 0.0
2017-Dec-02 02:30N 40°29' W 074°00'0 0.0
2017-Dec-02 02:00N 40°29' W 074°00'0 0.0
2017-Dec-02 01:30N 40°29' W 074°00'0 0.0
2017-Dec-02 01:00N 40°29' W 074°00'1 1.1
2017-Dec-01 23:50N 40°28' W 074°01'2 6.3
2017-Dec-01 23:30N 40°29' W 074°03'4 8.2
2017-Dec-01 23:00N 40°33' W 074°02'4 7.6
2017-Dec-01 22:30N 40°37' W 074°03'3 6.8
2017-Dec-01 22:00N 40°40' W 074°04'0 0.9
2017-Dec-01 21:30N 40°41' W 074°05'0 0.6
2017-Dec-01 21:01N 40°40' W 074°04'4 7.3
2017-Dec-01 20:30N 40°39' W 074°08'4 7.2
2017-Dec-01 20:00N 40°36' W 074°12'5 9.0
2017-Dec-01 19:29N 40°32' W 074°15'0 0.1
2017-Dec-01 18:59N 40°32' W 074°15'0 0.0
2017-Dec-01 18:26N 40°32' W 074°15'0 0.0
2017-Dec-01 17:51N 40°32' W 074°15'0 0.0
2017-Dec-01 17:20N 40°32' W 074°15'0 0.1
2017-Dec-01 17:00N 40°32' W 074°15'  

Dump ship's entire track history